createdAt,value
2022-09-07T00:00:10.167Z,964.39
2022-09-07T00:01:10.129Z,964.43
2022-09-07T00:02:10.090Z,964.46
2022-09-07T00:03:10.123Z,964.43
2022-09-07T00:04:10.067Z,964.39
2022-09-07T00:05:09.965Z,964.41
2022-09-07T00:06:09.932Z,964.39
2022-09-07T00:07:09.888Z,964.41
2022-09-07T00:08:09.849Z,964.37
2022-09-07T00:09:09.819Z,964.39
2022-09-07T00:10:09.794Z,964.39
2022-09-07T00:11:09.734Z,964.40
2022-09-07T00:12:09.692Z,964.38
2022-09-07T00:13:09.649Z,964.41
2022-09-07T00:14:09.611Z,964.39
2022-09-07T00:15:09.566Z,964.38
2022-09-07T00:16:09.641Z,964.39
2022-09-07T00:17:09.494Z,964.37
2022-09-07T00:18:09.450Z,964.39
2022-09-07T00:19:09.411Z,964.40
2022-09-07T00:20:09.372Z,964.42
2022-09-07T00:21:09.324Z,964.38
2022-09-07T00:22:09.331Z,964.39
2022-09-07T00:23:09.247Z,964.40
2022-09-07T00:24:09.210Z,964.39
2022-09-07T00:25:09.173Z,964.38
2022-09-07T00:26:09.130Z,964.39
2022-09-07T00:27:09.089Z,964.39
2022-09-07T00:28:09.072Z,964.39
2022-09-07T00:29:09.011Z,964.38
2022-09-07T00:30:08.968Z,964.35
2022-09-07T00:31:08.999Z,964.35
2022-09-07T00:32:08.886Z,964.33
2022-09-07T00:33:08.847Z,964.28
2022-09-07T00:34:08.816Z,964.30
2022-09-07T00:35:08.766Z,964.31
2022-09-07T00:36:08.727Z,964.29
2022-09-07T00:37:08.684Z,964.30
2022-09-07T00:38:08.646Z,964.30
2022-09-07T00:39:08.634Z,964.25
2022-09-07T00:40:08.609Z,964.27
2022-09-07T00:41:08.524Z,964.27
2022-09-07T00:42:08.483Z,964.29
2022-09-07T00:43:08.441Z,964.27
2022-09-07T00:44:08.404Z,964.28
2022-09-07T00:45:08.383Z,964.23
2022-09-07T00:46:08.355Z,964.24
2022-09-07T00:47:08.280Z,964.23
2022-09-07T00:48:08.244Z,964.25
2022-09-07T00:49:08.231Z,964.23
2022-09-07T00:50:08.158Z,964.22
2022-09-07T00:51:08.132Z,964.28
2022-09-07T00:52:08.085Z,964.27
2022-09-07T00:53:08.043Z,964.29
2022-09-07T00:54:07.998Z,964.29
2022-09-07T00:55:07.964Z,964.29
2022-09-07T00:56:07.921Z,964.29
2022-09-07T00:57:07.889Z,964.27
2022-09-07T00:58:07.846Z,964.24
2022-09-07T00:59:07.796Z,964.28
2022-09-07T01:00:07.758Z,964.25
2022-09-07T01:01:07.711Z,964.26
2022-09-07T01:02:07.859Z,964.26
2022-09-07T01:03:07.708Z,964.23
2022-09-07T01:04:07.597Z,964.18
2022-09-07T01:05:09.509Z,964.21
2022-09-07T01:06:07.508Z,964.20
2022-09-07T01:07:07.472Z,964.14
2022-09-07T01:08:07.462Z,964.14
2022-09-07T01:09:07.396Z,964.17
2022-09-07T01:10:07.350Z,964.16
2022-09-07T01:11:07.307Z,964.12
2022-09-07T01:12:07.280Z,964.14
2022-09-07T01:13:07.232Z,964.16
2022-09-07T01:14:07.215Z,964.15
2022-09-07T01:15:07.150Z,964.19
2022-09-07T01:16:07.209Z,964.17
2022-09-07T01:17:07.063Z,964.25
2022-09-07T01:18:07.031Z,964.21
2022-09-07T01:19:07.000Z,964.26
2022-09-07T01:20:07.010Z,964.31
2022-09-07T01:21:06.905Z,964.34
2022-09-07T01:22:06.866Z,964.35
2022-09-07T01:23:06.827Z,964.39
2022-09-07T01:24:06.787Z,964.39
2022-09-07T01:25:06.760Z,964.36
2022-09-07T01:26:06.820Z,964.36
2022-09-07T01:27:06.666Z,964.40
2022-09-07T01:28:06.622Z,964.39
2022-09-07T01:29:06.580Z,964.42
2022-09-07T01:30:06.562Z,964.40
2022-09-07T01:31:06.543Z,964.41
2022-09-07T01:32:06.478Z,964.39
2022-09-07T01:33:06.423Z,964.46
2022-09-07T01:34:06.380Z,964.45
2022-09-07T01:35:06.357Z,964.43
2022-09-07T01:36:06.296Z,964.42
2022-09-07T01:37:06.256Z,964.41
2022-09-07T01:38:06.293Z,964.40
2022-09-07T01:39:06.185Z,964.44
2022-09-07T01:40:06.228Z,964.42
2022-09-07T01:41:06.096Z,964.42
2022-09-07T01:42:06.059Z,964.41
2022-09-07T01:43:06.011Z,964.43
2022-09-07T01:44:05.996Z,964.43
2022-09-07T01:45:05.932Z,964.45
2022-09-07T01:46:05.912Z,964.43
2022-09-07T01:47:05.859Z,964.46
2022-09-07T01:48:05.813Z,964.48
2022-09-07T01:49:05.767Z,964.52
2022-09-07T01:50:05.755Z,964.53
2022-09-07T01:51:05.699Z,964.57
2022-09-07T01:52:05.657Z,964.58
2022-09-07T01:53:05.615Z,964.67
2022-09-07T01:54:05.572Z,964.67
2022-09-07T01:55:05.525Z,964.66
2022-09-07T01:56:05.494Z,964.63
2022-09-07T01:57:05.446Z,964.63
2022-09-07T01:58:05.408Z,964.59
2022-09-07T01:59:05.365Z,964.54
2022-09-07T02:00:05.352Z,964.51
2022-09-07T02:01:05.363Z,964.51
2022-09-07T02:02:05.273Z,964.50
2022-09-07T02:03:05.244Z,964.49
2022-09-07T02:04:05.165Z,964.48
2022-09-07T02:05:05.121Z,964.44
2022-09-07T02:06:05.092Z,964.43
2022-09-07T02:07:05.043Z,964.46
2022-09-07T02:08:04.997Z,964.45
2022-09-07T02:09:04.959Z,964.49
2022-09-07T02:10:04.916Z,964.52
2022-09-07T02:11:04.913Z,964.55
2022-09-07T02:12:04.837Z,964.52
2022-09-07T02:13:04.838Z,964.48
2022-09-07T02:14:04.759Z,964.50
2022-09-07T02:15:04.710Z,964.53
2022-09-07T02:16:04.702Z,964.45
2022-09-07T02:17:04.649Z,964.48
2022-09-07T02:18:04.597Z,964.50
2022-09-07T02:19:04.554Z,964.48
2022-09-07T02:20:04.512Z,964.41
2022-09-07T02:21:04.559Z,964.40
2022-09-07T02:22:04.431Z,964.38
2022-09-07T02:23:04.391Z,964.32
2022-09-07T02:24:04.352Z,964.32
2022-09-07T02:25:04.310Z,964.35
2022-09-07T02:26:04.274Z,964.36
2022-09-07T02:27:04.255Z,964.37
2022-09-07T02:28:04.187Z,964.42
2022-09-07T02:29:04.149Z,964.42
2022-09-07T02:30:04.126Z,964.41
2022-09-07T02:31:04.134Z,964.39
2022-09-07T02:32:04.030Z,964.38
2022-09-07T02:33:03.998Z,964.36
2022-09-07T02:34:03.944Z,964.37
2022-09-07T02:35:03.903Z,964.32
2022-09-07T02:36:03.909Z,964.29
2022-09-07T02:37:03.822Z,964.32
2022-09-07T02:38:03.781Z,964.29
2022-09-07T02:39:03.739Z,964.25
2022-09-07T02:40:03.845Z,964.28
2022-09-07T02:41:03.660Z,964.26
2022-09-07T02:42:03.644Z,964.29
2022-09-07T02:43:03.592Z,964.30
2022-09-07T02:44:03.538Z,964.31
2022-09-07T02:45:03.502Z,964.28
2022-09-07T02:46:03.586Z,964.27
2022-09-07T02:47:03.437Z,964.22
2022-09-07T02:48:03.376Z,964.21
2022-09-07T02:49:03.339Z,964.19
2022-09-07T02:50:03.296Z,964.18
2022-09-07T02:51:03.291Z,964.14
2022-09-07T02:52:03.214Z,964.12
2022-09-07T02:53:03.175Z,964.12
2022-09-07T02:54:03.207Z,964.12
2022-09-07T02:55:03.099Z,964.12
2022-09-07T02:56:03.064Z,964.11
2022-09-07T02:57:03.033Z,964.14
2022-09-07T02:58:02.978Z,964.13
2022-09-07T02:59:02.938Z,964.19
2022-09-07T03:00:02.987Z,964.27
2022-09-07T03:01:02.877Z,964.27
2022-09-07T03:02:02.807Z,964.24
2022-09-07T03:03:02.774Z,964.29
2022-09-07T03:04:02.730Z,964.26
2022-09-07T03:05:02.689Z,964.29
2022-09-07T03:06:02.675Z,964.28
2022-09-07T03:07:02.606Z,964.31
2022-09-07T03:08:02.574Z,964.30
2022-09-07T03:09:02.537Z,964.30
2022-09-07T03:10:02.499Z,964.36
2022-09-07T03:11:02.449Z,964.35
2022-09-07T03:12:02.505Z,964.36
2022-09-07T03:13:02.364Z,964.35
2022-09-07T03:14:02.321Z,964.31
2022-09-07T03:15:02.283Z,964.35
2022-09-07T03:16:02.310Z,964.40
2022-09-07T03:17:02.200Z,964.37
2022-09-07T03:18:02.182Z,964.41
2022-09-07T03:19:02.120Z,964.40
2022-09-07T03:20:02.084Z,964.37
2022-09-07T03:21:02.043Z,964.30
2022-09-07T03:22:02.015Z,964.29
2022-09-07T03:23:01.986Z,964.27
2022-09-07T03:24:01.919Z,964.27
2022-09-07T03:25:01.883Z,964.26
2022-09-07T03:26:01.838Z,964.25
2022-09-07T03:27:01.795Z,964.29
2022-09-07T03:28:01.759Z,964.25
2022-09-07T03:29:01.913Z,964.27
2022-09-07T03:30:01.677Z,964.29
2022-09-07T03:31:01.716Z,964.26
2022-09-07T03:32:01.590Z,964.30
2022-09-07T03:33:01.547Z,964.27
2022-09-07T03:34:01.510Z,964.30
2022-09-07T03:35:01.496Z,964.30
2022-09-07T03:36:01.448Z,964.29
2022-09-07T03:37:01.396Z,964.28
2022-09-07T03:38:01.351Z,964.23
2022-09-07T03:39:01.308Z,964.23
2022-09-07T03:40:01.302Z,964.24
2022-09-07T03:41:01.257Z,964.20
2022-09-07T03:42:01.183Z,964.16
2022-09-07T03:43:01.148Z,964.17
2022-09-07T03:44:01.104Z,964.17
2022-09-07T03:45:01.065Z,964.21
2022-09-07T03:46:01.088Z,964.26
2022-09-07T03:47:01.111Z,964.27
2022-09-07T03:48:00.955Z,964.30
2022-09-07T03:49:00.898Z,964.32
2022-09-07T03:50:00.870Z,964.34
2022-09-07T03:51:00.819Z,964.38
2022-09-07T03:52:00.783Z,964.42
2022-09-07T03:53:00.756Z,964.44
2022-09-07T03:54:00.710Z,964.38
2022-09-07T03:55:00.659Z,964.44
2022-09-07T03:56:00.619Z,964.43
2022-09-07T03:57:00.577Z,964.42
2022-09-07T03:58:00.533Z,964.42
2022-09-07T03:59:00.521Z,964.38
2022-09-07T04:00:00.462Z,964.40
2022-09-07T04:01:00.479Z,964.43
2022-09-07T04:02:00.440Z,964.42
2022-09-07T04:03:00.333Z,964.42
2022-09-07T04:04:02.351Z,964.45
2022-09-07T04:05:00.274Z,964.43
2022-09-07T04:06:00.208Z,964.41
2022-09-07T04:07:00.169Z,964.43
2022-09-07T04:08:00.133Z,964.38
2022-09-07T04:09:00.099Z,964.38
2022-09-07T04:10:00.053Z,964.35
2022-09-07T04:11:00.033Z,964.37
2022-09-07T04:11:59.965Z,964.40
2022-09-07T04:12:59.924Z,964.41
2022-09-07T04:13:59.885Z,964.38
2022-09-07T04:14:59.847Z,964.40
2022-09-07T04:15:59.815Z,964.38
2022-09-07T04:16:59.843Z,964.36
2022-09-07T04:17:59.743Z,964.37
2022-09-07T04:18:59.682Z,964.36
2022-09-07T04:19:59.642Z,964.36
2022-09-07T04:20:59.611Z,964.37
2022-09-07T04:21:59.561Z,964.37
2022-09-07T04:22:59.521Z,964.39
2022-09-07T04:23:59.509Z,964.37
2022-09-07T04:24:59.438Z,964.36
2022-09-07T04:26:08.682Z,964.34
2022-09-07T04:26:59.357Z,964.34
2022-09-07T04:27:59.316Z,964.32
2022-09-07T04:28:59.271Z,964.35
2022-09-07T04:29:59.268Z,964.39
2022-09-07T04:30:59.234Z,964.36
2022-09-07T04:31:59.153Z,964.35
2022-09-07T04:32:59.112Z,964.38
2022-09-07T04:33:59.081Z,964.42
2022-09-07T04:34:59.032Z,964.43
2022-09-07T04:35:59.022Z,964.48
2022-09-07T04:36:58.948Z,964.49
2022-09-07T04:37:58.907Z,964.52
2022-09-07T04:38:58.865Z,964.51
2022-09-07T04:39:58.908Z,964.51
2022-09-07T04:40:58.791Z,964.53
2022-09-07T04:41:58.743Z,964.50
2022-09-07T04:42:58.710Z,964.56
2022-09-07T04:43:58.690Z,964.51
2022-09-07T04:44:58.635Z,964.55
2022-09-07T04:45:58.652Z,964.57
2022-09-07T04:46:58.539Z,964.61
2022-09-07T04:47:58.518Z,964.61
2022-09-07T04:48:58.457Z,964.57
2022-09-07T04:49:58.416Z,964.60
2022-09-07T04:50:58.371Z,964.54
2022-09-07T04:51:58.336Z,964.57
2022-09-07T04:52:58.292Z,964.54
2022-09-07T04:53:58.280Z,964.57
2022-09-07T04:54:58.212Z,964.57
2022-09-07T04:55:58.169Z,964.59
2022-09-07T04:56:58.201Z,964.60
2022-09-07T04:57:58.111Z,964.59
2022-09-07T04:58:58.046Z,964.57
2022-09-07T04:59:58.006Z,964.55
2022-09-07T05:00:57.985Z,964.57
2022-09-07T05:01:58.088Z,964.58
2022-09-07T05:02:57.970Z,964.56
2022-09-07T05:03:57.840Z,964.58
2022-09-07T05:05:02.074Z,964.56
2022-09-07T05:05:57.759Z,964.58
2022-09-07T05:06:57.720Z,964.56
2022-09-07T05:07:57.691Z,964.61
2022-09-07T05:08:57.634Z,964.63
2022-09-07T05:09:57.591Z,964.64
2022-09-07T05:10:57.561Z,964.64
2022-09-07T05:11:57.518Z,964.66
2022-09-07T05:12:57.469Z,964.68
2022-09-07T05:13:57.447Z,964.69
2022-09-07T05:14:57.387Z,964.64
2022-09-07T05:15:57.348Z,964.66
2022-09-07T05:16:57.365Z,964.65
2022-09-07T05:17:57.268Z,964.67
2022-09-07T05:18:57.224Z,964.65
2022-09-07T05:19:57.193Z,964.65
2022-09-07T05:20:57.141Z,964.61
2022-09-07T05:21:57.111Z,964.65
2022-09-07T05:22:57.060Z,964.65
2022-09-07T05:23:57.023Z,964.65
2022-09-07T05:24:56.976Z,964.63
2022-09-07T05:25:56.933Z,964.63
2022-09-07T05:26:56.909Z,964.59
2022-09-07T05:27:56.850Z,964.57
2022-09-07T05:31:56.701Z,964.57
2022-09-07T05:32:56.661Z,964.57
2022-09-07T05:34:56.570Z,964.58
2022-09-07T05:35:56.523Z,964.63
2022-09-07T05:36:56.482Z,964.65
2022-09-07T05:37:56.553Z,964.64
2022-09-07T05:38:56.400Z,964.62
2022-09-07T05:39:56.398Z,964.65
2022-09-07T05:40:56.314Z,964.64
2022-09-07T05:41:56.274Z,964.64
2022-09-07T05:42:56.239Z,964.65
2022-09-07T05:44:56.156Z,964.64
2022-09-07T05:45:56.165Z,964.66
2022-09-07T05:46:56.074Z,964.67
2022-09-07T05:47:56.027Z,964.68
2022-09-07T05:48:55.984Z,964.68
2022-09-07T05:49:57.064Z,964.70
2022-09-07T05:50:55.902Z,964.72
2022-09-07T05:51:55.867Z,964.75
2022-09-07T05:52:55.824Z,964.73
2022-09-07T05:53:55.779Z,964.73
2022-09-07T05:55:07.485Z,964.75
2022-09-07T05:55:55.696Z,964.76
2022-09-07T05:56:55.657Z,964.74
2022-09-07T05:57:55.616Z,964.75
2022-09-07T05:58:55.580Z,964.73
2022-09-07T05:59:55.529Z,964.77
2022-09-07T06:03:47.103Z,964.82
2022-09-07T06:04:47.030Z,964.79
2022-09-07T06:05:46.986Z,964.81
2022-09-07T06:07:04.610Z,964.77
2022-09-07T06:07:46.896Z,964.76
2022-09-07T06:08:46.857Z,964.74
2022-09-07T06:10:46.789Z,964.73
2022-09-07T06:11:46.731Z,964.73
2022-09-07T06:12:49.006Z,964.70
2022-09-07T06:13:46.648Z,964.69
2022-09-07T06:14:46.607Z,964.69
2022-09-07T06:15:46.585Z,964.68
2022-09-07T06:16:46.555Z,964.73
2022-09-07T06:17:46.487Z,964.72
2022-09-07T06:18:46.441Z,964.71
2022-09-07T06:19:46.405Z,964.72
2022-09-07T06:20:46.364Z,964.74
2022-09-07T06:21:46.343Z,964.72
2022-09-07T06:22:46.279Z,964.73
2022-09-07T06:23:46.239Z,964.70
2022-09-07T06:24:46.195Z,964.73
2022-09-07T06:25:46.153Z,964.76
2022-09-07T06:26:46.127Z,964.69
2022-09-07T06:27:46.092Z,964.70
2022-09-07T06:28:48.955Z,964.71
2022-09-07T06:29:45.993Z,964.71
2022-09-07T06:30:45.949Z,964.70
2022-09-07T06:32:46.189Z,964.73
2022-09-07T06:33:45.863Z,964.73
2022-09-07T06:34:45.783Z,964.74
2022-09-07T06:35:45.749Z,964.74
2022-09-07T06:36:45.705Z,964.81
2022-09-07T06:37:45.669Z,964.84
2022-09-07T06:38:45.645Z,964.82
2022-09-07T06:39:45.666Z,964.84
2022-09-07T06:40:45.652Z,964.87
2022-09-07T06:42:00.778Z,964.86
2022-09-07T06:42:45.555Z,964.87
2022-09-07T06:43:46.146Z,964.83
2022-09-07T06:44:45.384Z,964.86
2022-09-07T06:45:45.380Z,964.86
2022-09-07T06:47:45.290Z,964.85
2022-09-07T06:48:45.226Z,964.80
2022-09-07T06:49:45.184Z,964.85
2022-09-07T06:50:45.143Z,964.85
2022-09-07T06:51:45.104Z,964.90
2022-09-07T06:53:45.279Z,964.96
2022-09-07T06:55:00.621Z,964.92
2022-09-07T06:55:44.981Z,964.95
2022-09-07T06:56:44.904Z,964.91
2022-09-07T06:57:44.892Z,964.93
2022-09-07T06:58:44.824Z,964.90
2022-09-07T06:59:44.826Z,964.84
2022-09-07T07:00:44.773Z,964.86
2022-09-07T07:01:44.708Z,964.81
2022-09-07T07:02:44.670Z,964.86
2022-09-07T07:03:44.659Z,964.84
2022-09-07T07:04:44.586Z,964.89
2022-09-07T07:05:44.588Z,964.88
2022-09-07T07:06:44.512Z,964.92
2022-09-07T07:07:44.469Z,964.91
2022-09-07T07:08:44.429Z,964.94
2022-09-07T07:09:44.394Z,964.98
2022-09-07T07:10:44.354Z,964.96
2022-09-07T07:11:44.337Z,964.96
2022-09-07T07:12:45.329Z,965.03
2022-09-07T07:13:44.235Z,965.03
2022-09-07T07:14:45.118Z,965.08
2022-09-07T07:15:44.151Z,965.08
2022-09-07T07:16:44.209Z,965.10
2022-09-07T07:17:46.845Z,965.09
2022-09-07T07:18:44.039Z,965.08
2022-09-07T07:19:44.028Z,965.08
2022-09-07T07:20:43.960Z,965.09
2022-09-07T07:22:10.428Z,965.09
2022-09-07T07:22:46.697Z,965.11
2022-09-07T07:23:43.837Z,965.09
2022-09-07T07:24:43.807Z,965.17
2022-09-07T07:25:43.762Z,965.18
2022-09-07T07:26:43.749Z,965.17
2022-09-07T07:27:43.686Z,965.19
2022-09-07T07:29:43.609Z,965.19
2022-09-07T07:30:43.593Z,965.20
2022-09-07T07:31:43.535Z,965.17
2022-09-07T07:32:43.515Z,965.19
2022-09-07T07:33:43.549Z,965.16
2022-09-07T07:34:43.427Z,965.12
2022-09-07T07:35:43.382Z,965.12
2022-09-07T07:36:43.376Z,965.11
2022-09-07T07:37:43.326Z,965.12
2022-09-07T07:40:43.287Z,965.06
2022-09-07T07:42:01.665Z,965.08
2022-09-07T07:42:43.108Z,965.06
2022-09-07T07:43:43.087Z,965.03
2022-09-07T07:44:43.035Z,965.02
2022-09-07T07:46:00.078Z,964.99
2022-09-07T07:46:43.040Z,964.97
2022-09-07T07:47:42.909Z,964.94
2022-09-07T07:48:42.877Z,964.95
2022-09-07T07:49:42.855Z,964.95
2022-09-07T07:50:42.793Z,964.95
2022-09-07T07:52:50.286Z,964.96
2022-09-07T07:53:42.865Z,964.92
2022-09-07T07:54:42.644Z,964.92
2022-09-07T07:55:44.189Z,964.90
2022-09-07T07:56:42.570Z,964.90
2022-09-07T07:57:42.517Z,964.88
2022-09-07T07:58:42.483Z,964.87
2022-09-07T07:59:42.473Z,964.83
2022-09-07T08:00:56.541Z,964.83
2022-09-07T08:01:42.486Z,964.85
2022-09-07T08:02:42.364Z,964.79
2022-09-07T08:03:42.288Z,964.79
2022-09-07T08:04:42.262Z,964.77
2022-09-07T08:05:42.212Z,964.79
2022-09-07T08:06:42.173Z,964.78
2022-09-07T08:07:42.136Z,964.78
2022-09-07T08:08:42.107Z,964.81
2022-09-07T08:09:42.056Z,964.86
2022-09-07T08:10:42.018Z,964.90
2022-09-07T08:11:41.980Z,964.94
2022-09-07T08:12:41.941Z,965.00
2022-09-07T08:13:41.926Z,964.97
2022-09-07T08:14:42.024Z,965.03
2022-09-07T08:15:41.822Z,965.03
2022-09-07T08:16:41.884Z,965.02
2022-09-07T08:17:41.741Z,965.03
2022-09-07T08:18:46.364Z,965.06
2022-09-07T08:19:41.675Z,965.03
2022-09-07T08:20:41.668Z,965.03
2022-09-07T08:21:41.596Z,965.03
2022-09-07T08:22:41.553Z,965.05
2022-09-07T08:23:41.518Z,965.03
2022-09-07T08:24:41.511Z,965.03
2022-09-07T08:25:41.439Z,965.05
2022-09-07T08:26:41.399Z,965.06
2022-09-07T08:27:41.380Z,964.97
2022-09-07T08:28:41.324Z,964.99
2022-09-07T08:29:41.287Z,964.94
2022-09-07T08:30:41.296Z,964.94
2022-09-07T08:31:41.249Z,965.02
2022-09-07T08:32:41.177Z,964.96
2022-09-07T08:33:41.134Z,965.05
2022-09-07T08:34:41.101Z,965.00
2022-09-07T08:35:41.064Z,965.05
2022-09-07T08:36:41.068Z,965.08
2022-09-07T08:37:40.988Z,965.09
2022-09-07T08:38:40.961Z,965.03
2022-09-07T08:39:40.961Z,965.02
2022-09-07T08:40:40.885Z,964.96
2022-09-07T08:41:40.847Z,964.97
2022-09-07T08:42:40.829Z,964.95
2022-09-07T08:43:40.771Z,965.05
2022-09-07T08:44:40.737Z,965.07
2022-09-07T08:45:40.730Z,965.12
2022-09-07T08:46:40.741Z,965.12
2022-09-07T08:47:40.629Z,965.12
2022-09-07T08:48:40.595Z,965.10
2022-09-07T08:49:40.556Z,965.10
2022-09-07T08:50:40.521Z,965.14
2022-09-07T08:51:40.521Z,965.11
2022-09-07T08:52:40.461Z,965.11
2022-09-07T08:53:40.448Z,965.07
2022-09-07T08:54:40.393Z,965.08
2022-09-07T08:55:40.359Z,965.13
2022-09-07T08:57:20.190Z,965.10
2022-09-07T08:57:40.293Z,965.05
2022-09-07T08:58:51.987Z,965.03
2022-09-07T08:59:40.231Z,965.06
2022-09-07T09:00:40.204Z,965.05
2022-09-07T09:01:40.928Z,965.07
2022-09-07T09:02:43.963Z,965.00
2022-09-07T09:04:15.345Z,965.02
2022-09-07T09:05:40.104Z,965.06
2022-09-07T09:06:40.198Z,965.00
2022-09-07T09:07:39.984Z,965.04
2022-09-07T09:08:39.976Z,965.09
2022-09-07T09:09:39.920Z,965.11
2022-09-07T09:10:39.925Z,965.11
2022-09-07T09:11:39.886Z,965.12
2022-09-07T09:12:39.840Z,965.10
2022-09-07T09:13:39.800Z,965.10
2022-09-07T09:14:39.773Z,965.10
2022-09-07T09:15:39.762Z,965.09
2022-09-07T09:16:42.703Z,965.07
2022-09-07T09:17:39.693Z,964.96
2022-09-07T09:18:39.665Z,964.87
2022-09-07T09:19:39.635Z,964.84
2022-09-07T09:20:39.655Z,964.85
2022-09-07T09:21:39.574Z,964.80
2022-09-07T09:22:39.549Z,964.79
2022-09-07T09:23:39.547Z,964.78
2022-09-07T09:24:39.490Z,964.77
2022-09-07T09:25:39.488Z,964.77
2022-09-07T09:26:39.515Z,964.73
2022-09-07T09:27:39.401Z,964.73
2022-09-07T09:28:39.610Z,964.74
2022-09-07T09:29:39.346Z,964.72
2022-09-07T09:30:39.338Z,964.71
2022-09-07T09:31:39.349Z,964.73
2022-09-07T09:32:39.254Z,964.65
2022-09-07T09:33:39.230Z,964.69
2022-09-07T09:34:39.195Z,964.67
2022-09-07T09:35:39.180Z,964.74
2022-09-07T09:36:39.135Z,964.62
2022-09-07T09:37:39.121Z,964.57
2022-09-07T09:38:39.073Z,964.55
2022-09-07T09:39:39.078Z,964.61
2022-09-07T09:40:39.014Z,964.54
2022-09-07T09:41:38.984Z,964.61
2022-09-07T09:42:38.949Z,964.46
2022-09-07T09:43:38.941Z,964.46
2022-09-07T09:44:39.885Z,964.51
2022-09-07T09:46:38.866Z,964.55
2022-09-07T09:47:38.881Z,964.45
2022-09-07T09:48:38.764Z,964.43
2022-09-07T09:49:38.736Z,964.41
2022-09-07T09:52:47.778Z,964.34
2022-09-07T09:53:38.614Z,964.36
2022-09-07T09:54:38.582Z,964.37
2022-09-07T09:55:38.559Z,964.35
2022-09-07T09:56:38.520Z,964.32
2022-09-07T09:57:38.730Z,964.38
2022-09-07T10:01:21.009Z,964.26
2022-09-07T10:04:38.267Z,964.19
2022-09-07T10:05:38.240Z,964.14
2022-09-07T10:06:38.205Z,964.10
2022-09-07T10:07:38.174Z,964.09
2022-09-07T10:08:38.145Z,964.08
2022-09-07T10:09:38.244Z,964.06
2022-09-07T10:10:38.083Z,964.04
2022-09-07T10:12:08.162Z,964.01
2022-09-07T10:12:38.019Z,963.99
2022-09-07T10:13:37.986Z,963.98
2022-09-07T10:14:37.950Z,963.99
2022-09-07T10:15:41.138Z,963.99
2022-09-07T10:16:37.891Z,964.00
2022-09-07T10:17:37.859Z,963.96
2022-09-07T10:18:37.827Z,963.95
2022-09-07T10:19:37.797Z,963.93
2022-09-07T10:20:37.767Z,963.87
2022-09-07T10:21:37.748Z,963.87
2022-09-07T10:22:37.695Z,963.84
2022-09-07T10:23:37.670Z,963.84
2022-09-07T10:24:37.634Z,963.82
2022-09-07T10:25:38.603Z,963.83
2022-09-07T10:26:37.573Z,963.81
2022-09-07T10:27:37.562Z,963.82
2022-09-07T10:29:07.416Z,963.79
2022-09-07T10:29:37.470Z,963.78
2022-09-07T10:30:37.440Z,963.77
2022-09-07T10:31:37.461Z,963.77
2022-09-07T10:32:37.377Z,963.73
2022-09-07T10:33:37.357Z,963.75
2022-09-07T10:34:37.308Z,963.72
2022-09-07T10:35:37.281Z,963.74
2022-09-07T10:36:37.241Z,963.73
2022-09-07T10:37:37.217Z,963.72
2022-09-07T10:38:37.180Z,963.69
2022-09-07T10:39:37.269Z,963.68
2022-09-07T10:40:37.115Z,963.68
2022-09-07T10:41:37.094Z,963.61
2022-09-07T10:42:37.223Z,963.65
2022-09-07T10:43:37.031Z,963.58
2022-09-07T10:44:36.977Z,963.59
2022-09-07T10:45:36.950Z,963.60
2022-09-07T10:47:36.936Z,963.55
2022-09-07T10:48:36.850Z,963.54
2022-09-07T10:49:37.042Z,963.54
2022-09-07T10:50:36.781Z,963.55
2022-09-07T10:51:36.765Z,963.52
2022-09-07T10:52:36.720Z,963.53
2022-09-07T10:53:41.491Z,963.52
2022-09-07T10:54:36.778Z,963.55
2022-09-07T10:55:36.620Z,963.54
2022-09-07T10:56:36.591Z,963.53
2022-09-07T10:57:36.554Z,963.55
2022-09-07T11:00:36.492Z,963.43
2022-09-07T11:01:36.439Z,963.43
2022-09-07T11:02:36.473Z,963.44
2022-09-07T11:03:36.458Z,963.40
2022-09-07T11:04:36.326Z,963.42
2022-09-07T11:05:38.442Z,963.44
2022-09-07T11:06:36.255Z,963.39
2022-09-07T11:07:36.218Z,963.38
2022-09-07T11:09:15.982Z,963.44
2022-09-07T11:09:36.157Z,963.57
2022-09-07T11:10:36.149Z,963.39
2022-09-07T11:12:05.020Z,963.39
2022-09-07T11:12:36.063Z,963.34
2022-09-07T11:13:55.492Z,963.33
2022-09-07T11:14:35.992Z,963.36
2022-09-07T11:15:38.096Z,963.29
2022-09-07T11:16:51.622Z,963.33
2022-09-07T11:17:35.894Z,963.30
2022-09-07T11:18:35.897Z,963.29
2022-09-07T11:19:36.998Z,963.33
2022-09-07T11:20:35.803Z,963.29
2022-09-07T11:22:35.756Z,963.26
2022-09-07T11:23:39.076Z,963.23
2022-09-07T11:24:35.666Z,963.23
2022-09-07T11:25:35.652Z,963.21
2022-09-07T11:26:35.636Z,963.23
2022-09-07T11:27:35.575Z,963.18
2022-09-07T11:28:35.544Z,963.14
2022-09-07T11:29:35.509Z,963.13
2022-09-07T11:30:35.814Z,963.16
2022-09-07T11:31:35.482Z,963.14
2022-09-07T11:32:35.413Z,963.12
2022-09-07T11:33:35.385Z,963.13
2022-09-07T11:34:35.352Z,963.07
2022-09-07T11:35:35.329Z,963.08
2022-09-07T11:36:35.285Z,963.06
2022-09-07T11:37:35.253Z,963.09
2022-09-07T11:38:35.242Z,963.09
2022-09-07T11:39:35.300Z,963.11
2022-09-07T11:40:35.149Z,963.13
2022-09-07T11:41:35.119Z,963.10
2022-09-07T11:42:50.334Z,963.05
2022-09-07T11:43:35.051Z,963.05
2022-09-07T11:44:35.038Z,963.03
2022-09-07T11:45:34.994Z,962.98
2022-09-07T11:46:35.004Z,962.96
2022-09-07T11:47:34.923Z,962.94
2022-09-07T11:48:35.097Z,962.90
2022-09-07T11:49:34.881Z,962.93
2022-09-07T11:50:34.828Z,962.92
2022-09-07T11:51:34.800Z,962.89
2022-09-07T11:52:34.759Z,962.90
2022-09-07T11:53:34.728Z,962.92
2022-09-07T11:54:34.696Z,962.90
2022-09-07T11:55:34.850Z,962.89
2022-09-07T11:56:37.465Z,962.87
2022-09-07T11:57:34.595Z,962.80
2022-09-07T11:58:34.566Z,962.81
2022-09-07T11:59:36.878Z,962.81
2022-09-07T12:00:34.498Z,962.81
2022-09-07T12:01:34.489Z,962.80
2022-09-07T12:02:57.563Z,962.78
2022-09-07T12:03:34.488Z,962.80
2022-09-07T12:04:34.456Z,962.78
2022-09-07T12:05:34.332Z,962.77
2022-09-07T12:06:34.300Z,962.77
2022-09-07T12:07:34.740Z,962.72
2022-09-07T12:08:34.256Z,962.74
2022-09-07T12:09:34.203Z,962.72
2022-09-07T12:10:34.166Z,962.69
2022-09-07T12:11:34.242Z,962.69
2022-09-07T12:12:34.136Z,962.66
2022-09-07T12:13:34.068Z,962.68
2022-09-07T12:14:34.041Z,962.69
2022-09-07T12:15:34.053Z,962.66
2022-09-07T12:16:33.968Z,962.68
2022-09-07T12:17:33.932Z,962.68
2022-09-07T12:18:33.931Z,962.69
2022-09-07T12:19:33.862Z,962.72
2022-09-07T12:20:33.836Z,962.72
2022-09-07T12:21:33.799Z,962.72
2022-09-07T12:22:33.762Z,962.72
2022-09-07T12:23:33.729Z,962.70
2022-09-07T12:24:33.716Z,962.71
2022-09-07T12:25:33.677Z,962.66
2022-09-07T12:26:33.638Z,962.69
2022-09-07T12:27:33.600Z,962.68
2022-09-07T12:28:33.667Z,962.66
2022-09-07T12:29:33.528Z,962.69
2022-09-07T12:30:33.515Z,962.67
2022-09-07T12:31:39.072Z,962.72
2022-09-07T12:33:02.843Z,962.64
2022-09-07T12:33:33.411Z,962.65
2022-09-07T12:34:33.363Z,962.66
2022-09-07T12:35:33.334Z,962.71
2022-09-07T12:36:33.303Z,962.64
2022-09-07T12:37:33.269Z,962.68
2022-09-07T12:38:33.334Z,962.62
2022-09-07T12:39:33.291Z,962.57
2022-09-07T12:40:33.182Z,962.54
2022-09-07T12:41:33.139Z,962.51
2022-09-07T12:42:34.122Z,962.48
2022-09-07T12:43:33.079Z,962.51
2022-09-07T12:44:33.083Z,962.50
2022-09-07T12:45:33.038Z,962.48
2022-09-07T12:46:34.704Z,962.46
2022-09-07T12:47:32.959Z,962.43
2022-09-07T12:48:33.165Z,962.41
2022-09-07T12:49:32.897Z,962.42
2022-09-07T12:50:35.914Z,962.39
2022-09-07T12:52:32.815Z,962.35
2022-09-07T12:53:32.800Z,962.34
2022-09-07T12:54:32.760Z,962.32
2022-09-07T12:55:32.975Z,962.40
2022-09-07T12:56:32.704Z,962.28
2022-09-07T12:57:32.717Z,962.29